Time;durP1;ratioP1;P1;durP2;ratioP2;P2;SDS_P1;SDS_P2;PMS_P1;PMS_P2;Temp;Humidity;BMP_temperature;BMP_pressure;BME280_temperature;BME280_humidity;BME280_pressure;Samples;Min_cycle;Max_cycle;Signal;HPM_P1;HPM_P2
2024/02/06 00:01:48;;;;;;;7.10;3.00;;;;;;;-128.00;-1.00;-1.00;103064;1253;1003664;-79
2024/02/06 00:04:15;;;;;;;13.00;3.80;;;;;;;-128.00;-1.00;-1.00;102984;1252;1005674;-80
2024/02/06 00:06:42;;;;;;;13.90;5.10;;;;;;;-128.00;-1.00;-1.00;105720;1253;1004154;-75
2024/02/06 00:09:09;;;;;;;22.60;7.60;;;;;;;-128.00;-1.00;-1.00;105687;1253;1003462;-75
2024/02/06 00:11:35;;;;;;;14.70;7.00;;;;;;;-128.00;-1.00;-1.00;103804;1252;1004098;-75
2024/02/06 00:14:01;;;;;;;13.20;5.10;;;;;;;-128.00;-1.00;-1.00;103137;1252;1004358;-79
2024/02/06 00:16:28;;;;;;;12.90;4.90;;;;;;;-128.00;-1.00;-1.00;102974;1253;1004351;-79
2024/02/06 00:18:54;;;;;;;13.70;7.50;;;;;;;-128.00;-1.00;-1.00;103086;1253;1003544;-79
2024/02/06 00:21:22;;;;;;;16.60;4.50;;;;;;;-128.00;-1.00;-1.00;103061;1253;1003458;-79
2024/02/06 00:23:49;;;;;;;19.00;6.10;;;;;;;-128.00;-1.00;-1.00;102959;1253;1004544;-75
2024/02/06 00:26:15;;;;;;;16.20;5.10;;;;;;;-128.00;-1.00;-1.00;103021;1253;1004737;-74
2024/02/06 00:28:42;;;;;;;13.50;5.90;;;;;;;-128.00;-1.00;-1.00;103085;1253;1004079;-79
2024/02/06 00:31:08;;;;;;;12.70;5.80;;;;;;;-128.00;-1.00;-1.00;104590;1252;1003985;-79
2024/02/06 00:33:35;;;;;;;14.60;5.00;;;;;;;-128.00;-1.00;-1.00;105630;1252;1005203;-75
2024/02/06 00:36:01;;;;;;;11.60;5.10;;;;;;;-128.00;-1.00;-1.00;105648;1252;1004145;-78
2024/02/06 00:38:27;;;;;;;13.40;4.60;;;;;;;-128.00;-1.00;-1.00;105707;1251;1003655;-79
2024/02/06 00:40:54;;;;;;;10.50;5.10;;;;;;;-128.00;-1.00;-1.00;105639;1252;1004747;-79
2024/02/06 00:43:22;;;;;;;18.40;7.50;;;;;;;-128.00;-1.00;-1.00;105623;1253;1003439;-79
2024/02/06 00:45:50;;;;;;;25.60;8.80;;;;;;;-128.00;-1.00;-1.00;105577;1253;1003854;-75
2024/02/06 00:48:17;;;;;;;30.90;10.10;;;;;;;-128.00;-1.00;-1.00;104683;1253;1045048;-75
2024/02/06 00:50:43;;;;;;;15.00;7.40;;;;;;;-128.00;-1.00;-1.00;102944;1253;1004098;-75
2024/02/06 00:53:09;;;;;;;12.30;6.90;;;;;;;-128.00;-1.00;-1.00;102920;1253;1004491;-79
2024/02/06 00:55:36;;;;;;;8.90;4.60;;;;;;;-128.00;-1.00;-1.00;102929;1253;1004289;-79
2024/02/06 00:58:02;;;;;;;11.20;5.00;;;;;;;-128.00;-1.00;-1.00;102932;1253;1003997;-75
2024/02/06 01:00:29;;;;;;;14.60;4.90;;;;;;;-128.00;-1.00;-1.00;102910;1253;1003761;-79
2024/02/06 01:02:55;;;;;;;14.40;4.50;;;;;;;-128.00;-1.00;-1.00;103005;1253;1004668;-75
2024/02/06 01:05:22;;;;;;;10.10;3.10;;;;;;;-128.00;-1.00;-1.00;102986;1253;1004956;-79
2024/02/06 01:07:48;;;;;;;6.00;3.60;;;;;;;-128.00;-1.00;-1.00;102947;1253;1004348;-75
2024/02/06 01:10:14;;;;;;;6.70;3.80;;;;;;;-128.00;-1.00;-1.00;102970;1253;1004631;-79
2024/02/06 01:12:41;;;;;;;6.60;2.80;;;;;;;-128.00;-1.00;-1.00;103003;1253;1047593;-75
2024/02/06 01:15:07;;;;;;;7.30;3.60;;;;;;;-128.00;-1.00;-1.00;103049;1256;1004412;-75
2024/02/06 01:17:34;;;;;;;7.40;3.80;;;;;;;-128.00;-1.00;-1.00;103182;1253;1005014;-75
2024/02/06 01:20:00;;;;;;;12.70;5.00;;;;;;;-128.00;-1.00;-1.00;103073;1253;1004641;-75
2024/02/06 01:22:27;;;;;;;8.20;3.30;;;;;;;-128.00;-1.00;-1.00;103056;1253;1005031;-79
2024/02/06 01:24:54;;;;;;;8.20;4.30;;;;;;;-128.00;-1.00;-1.00;102967;1253;1006192;-75
2024/02/06 01:27:20;;;;;;;13.10;4.20;;;;;;;-128.00;-1.00;-1.00;103056;1253;1003977;-75
2024/02/06 01:29:47;;;;;;;9.00;5.30;;;;;;;-128.00;-1.00;-1.00;103063;1253;1005348;-75
2024/02/06 01:32:14;;;;;;;7.30;3.30;;;;;;;-128.00;-1.00;-1.00;102994;1252;1005658;-75
2024/02/06 01:34:41;;;;;;;13.10;4.90;;;;;;;-128.00;-1.00;-1.00;103019;1252;1004511;-79
2024/02/06 01:37:08;;;;;;;13.80;4.20;;;;;;;-128.00;-1.00;-1.00;103022;1253;1003923;-79
2024/02/06 01:39:34;;;;;;;8.50;2.70;;;;;;;-128.00;-1.00;-1.00;103046;1252;1003880;-79
2024/02/06 01:42:04;;;;;;;6.10;3.00;;;;;;;-128.00;-1.00;-1.00;103033;1253;1004944;-79
2024/02/06 01:44:30;;;;;;;6.90;2.90;;;;;;;-128.00;-1.00;-1.00;103257;1253;1059813;-79
2024/02/06 01:46:57;;;;;;;13.20;4.40;;;;;;;-128.00;-1.00;-1.00;105183;1252;1003876;-75
2024/02/06 01:49:24;;;;;;;10.00;2.90;;;;;;;-128.00;-1.00;-1.00;103089;1252;1003505;-79
2024/02/06 01:51:50;;;;;;;6.90;3.80;;;;;;;-128.00;-1.00;-1.00;103024;1252;1005180;-79
2024/02/06 01:54:16;;;;;;;7.80;3.60;;;;;;;-128.00;-1.00;-1.00;103023;1253;1003714;-75
2024/02/06 01:56:44;;;;;;;10.20;4.10;;;;;;;-128.00;-1.00;-1.00;102982;1253;1004795;-79
2024/02/06 01:59:11;;;;;;;9.00;3.60;;;;;;;-128.00;-1.00;-1.00;102996;1253;1005238;-79
2024/02/06 02:01:37;;;;;;;11.70;3.70;;;;;;;-128.00;-1.00;-1.00;103449;1252;1005015;-75
2024/02/06 02:04:04;;;;;;;7.00;3.90;;;;;;;-128.00;-1.00;-1.00;103247;1253;1004406;-75
2024/02/06 02:06:30;;;;;;;13.30;5.60;;;;;;;-128.00;-1.00;-1.00;103154;1253;1004808;-74
2024/02/06 02:08:57;;;;;;;15.90;4.10;;;;;;;-128.00;-1.00;-1.00;103167;1252;1004443;-75
2024/02/06 02:11:23;;;;;;;15.20;7.90;;;;;;;-128.00;-1.00;-1.00;103180;1253;1003973;-75
2024/02/06 02:13:52;;;;;;;21.40;7.10;;;;;;;-128.00;-1.00;-1.00;103225;1253;1004352;-74
2024/02/06 02:16:21;;;;;;;17.60;6.40;;;;;;;-128.00;-1.00;-1.00;103118;1253;1061782;-74
2024/02/06 02:18:47;;;;;;;13.60;6.90;;;;;;;-128.00;-1.00;-1.00;103014;1253;1058460;-80
2024/02/06 02:21:17;;;;;;;12.10;5.90;;;;;;;-128.00;-1.00;-1.00;103087;1253;1004533;-80
2024/02/06 02:23:44;;;;;;;15.10;5.10;;;;;;;-128.00;-1.00;-1.00;103178;1252;1045296;-78
2024/02/06 02:26:11;;;;;;;13.30;5.10;;;;;;;-128.00;-1.00;-1.00;103126;1253;1004526;-78
2024/02/06 02:28:39;;;;;;;7.70;4.10;;;;;;;-128.00;-1.00;-1.00;103203;1253;1003893;-74
2024/02/06 02:31:05;;;;;;;12.80;6.00;;;;;;;-128.00;-1.00;-1.00;103224;1253;1004231;-74
2024/02/06 02:33:32;;;;;;;21.90;7.30;;;;;;;-128.00;-1.00;-1.00;103130;1252;1005632;-75
2024/02/06 02:35:59;;;;;;;12.50;7.00;;;;;;;-128.00;-1.00;-1.00;103269;1252;1005238;-79
2024/02/06 02:38:25;;;;;;;13.20;7.00;;;;;;;-128.00;-1.00;-1.00;103171;1253;1003868;-75
2024/02/06 02:40:52;;;;;;;19.30;8.70;;;;;;;-128.00;-1.00;-1.00;103218;1253;1004613;-79
2024/02/06 02:43:18;;;;;;;14.20;7.80;;;;;;;-128.00;-1.00;-1.00;103282;1252;1004119;-79
2024/02/06 02:45:45;;;;;;;11.90;6.50;;;;;;;-128.00;-1.00;-1.00;103296;1253;1003833;-75
2024/02/06 02:48:11;;;;;;;53.60;27.60;;;;;;;-128.00;-1.00;-1.00;103097;1253;1004356;-75
2024/02/06 02:50:37;;;;;;;19.10;9.50;;;;;;;-128.00;-1.00;-1.00;103249;1253;1005709;-74
2024/02/06 02:53:04;;;;;;;16.50;6.80;;;;;;;-128.00;-1.00;-1.00;103332;1253;1005138;-78
2024/02/06 02:55:33;;;;;;;23.50;10.70;;;;;;;-128.00;-1.00;-1.00;103252;1253;1004081;-75
2024/02/06 02:57:59;;;;;;;21.80;10.40;;;;;;;-128.00;-1.00;-1.00;103132;1254;1003602;-75
2024/02/06 03:00:26;;;;;;;22.60;8.40;;;;;;;-128.00;-1.00;-1.00;103173;1253;1004279;-79
2024/02/06 03:02:52;;;;;;;14.20;6.30;;;;;;;-128.00;-1.00;-1.00;103284;1252;1004801;-74
2024/02/06 03:05:19;;;;;;;13.30;5.90;;;;;;;-128.00;-1.00;-1.00;103287;1252;1003941;-74
2024/02/06 03:07:45;;;;;;;16.30;7.80;;;;;;;-128.00;-1.00;-1.00;103186;1253;1003892;-74
2024/02/06 03:10:12;;;;;;;22.00;8.80;;;;;;;-128.00;-1.00;-1.00;103111;1252;1004130;-74
2024/02/06 03:12:39;;;;;;;15.00;7.10;;;;;;;-128.00;-1.00;-1.00;103268;1253;1004852;-74
2024/02/06 03:15:06;;;;;;;10.80;5.50;;;;;;;-128.00;-1.00;-1.00;103326;1252;1005057;-75
2024/02/06 03:17:33;;;;;;;8.20;3.50;;;;;;;-128.00;-1.00;-1.00;103198;1252;1003925;-75
2024/02/06 03:20:01;;;;;;;12.10;4.70;;;;;;;-128.00;-1.00;-1.00;103187;1253;1004205;-74
2024/02/06 03:22:29;;;;;;;10.20;5.30;;;;;;;-128.00;-1.00;-1.00;103265;1255;1003935;-74
2024/02/06 03:24:56;;;;;;;9.30;5.90;;;;;;;-128.00;-1.00;-1.00;103266;1253;1004794;-79
2024/02/06 03:27:22;;;;;;;10.50;6.60;;;;;;;-128.00;-1.00;-1.00;103201;1253;1004852;-75
2024/02/06 03:29:48;;;;;;;12.60;7.00;;;;;;;-128.00;-1.00;-1.00;103158;1252;1005898;-78
2024/02/06 03:32:15;;;;;;;19.10;6.90;;;;;;;-128.00;-1.00;-1.00;103251;1253;1004087;-75
2024/02/06 03:34:41;;;;;;;13.40;7.30;;;;;;;-128.00;-1.00;-1.00;104866;1251;1005093;-79
2024/02/06 03:37:08;;;;;;;15.20;8.80;;;;;;;-128.00;-1.00;-1.00;105648;1253;1005026;-78
2024/02/06 03:39:34;;;;;;;13.20;8.90;;;;;;;-128.00;-1.00;-1.00;104236;1253;1004097;-79
2024/02/06 03:42:01;;;;;;;20.00;10.50;;;;;;;-128.00;-1.00;-1.00;103254;1253;1005953;-78
2024/02/06 03:44:27;;;;;;;13.40;8.10;;;;;;;-128.00;-1.00;-1.00;103251;1253;1004683;-74
2024/02/06 03:46:53;;;;;;;18.80;10.90;;;;;;;-128.00;-1.00;-1.00;103221;1253;1004902;-79
2024/02/06 03:49:20;;;;;;;40.50;23.60;;;;;;;-128.00;-1.00;-1.00;103295;1253;1004923;-78
2024/02/06 03:51:47;;;;;;;34.50;16.70;;;;;;;-128.00;-1.00;-1.00;103336;1252;1061458;-79
2024/02/06 03:54:13;;;;;;;37.10;20.40;;;;;;;-128.00;-1.00;-1.00;103744;1253;1004516;-79
2024/02/06 03:56:39;;;;;;;39.70;18.80;;;;;;;-128.00;-1.00;-1.00;103146;1253;1004320;-78
2024/02/06 03:59:06;;;;;;;42.20;17.10;;;;;;;-128.00;-1.00;-1.00;103104;1251;1005360;-74
2024/02/06 04:01:32;;;;;;;42.40;18.00;;;;;;;-128.00;-1.00;-1.00;103219;1254;1005781;-77
2024/02/06 04:04:00;;;;;;;33.30;16.50;;;;;;;-128.00;-1.00;-1.00;103151;1253;1004666;-79
2024/02/06 04:06:26;;;;;;;25.40;14.30;;;;;;;-128.00;-1.00;-1.00;103199;1253;1004584;-75
2024/02/06 04:08:53;;;;;;;25.60;13.00;;;;;;;-128.00;-1.00;-1.00;103163;1252;1004453;-74
2024/02/06 04:11:20;;;;;;;30.00;15.10;;;;;;;-128.00;-1.00;-1.00;103128;1253;1005736;-75
2024/02/06 04:13:46;;;;;;;37.70;21.90;;;;;;;-128.00;-1.00;-1.00;103164;1253;1004800;-79
2024/02/06 04:16:13;;;;;;;47.60;22.20;;;;;;;-128.00;-1.00;-1.00;103220;1253;1004575;-75
2024/02/06 04:18:40;;;;;;;47.80;28.30;;;;;;;-128.00;-1.00;-1.00;103754;1253;1005214;-78
2024/02/06 04:21:06;;;;;;;50.60;26.90;;;;;;;-128.00;-1.00;-1.00;105599;1252;1004225;-75
2024/02/06 04:23:33;;;;;;;33.00;15.60;;;;;;;-128.00;-1.00;-1.00;105674;1252;1004301;-78
2024/02/06 04:25:59;;;;;;;39.20;21.00;;;;;;;-128.00;-1.00;-1.00;105611;1252;1004426;-78
2024/02/06 04:28:25;;;;;;;22.10;11.90;;;;;;;-128.00;-1.00;-1.00;105675;1255;1004186;-74
2024/02/06 04:30:52;;;;;;;32.70;21.80;;;;;;;-128.00;-1.00;-1.00;105493;1252;1004297;-78
2024/02/06 04:33:18;;;;;;;37.70;22.50;;;;;;;-128.00;-1.00;-1.00;105644;1252;1003831;-74
2024/02/06 04:35:45;;;;;;;38.50;22.00;;;;;;;-128.00;-1.00;-1.00;105655;1252;1004106;-74
2024/02/06 04:38:13;;;;;;;33.80;23.00;;;;;;;-128.00;-1.00;-1.00;103974;1253;1004346;-78
2024/02/06 04:40:40;;;;;;;36.50;23.70;;;;;;;-128.00;-1.00;-1.00;104539;1252;1004435;-75
2024/02/06 04:43:06;;;;;;;42.60;27.80;;;;;;;-128.00;-1.00;-1.00;105694;1255;1004162;-74
2024/02/06 04:45:34;;;;;;;52.70;33.30;;;;;;;-128.00;-1.00;-1.00;105665;1252;1004514;-78
2024/02/06 04:48:00;;;;;;;61.70;34.10;;;;;;;-128.00;-1.00;-1.00;105654;1252;1004613;-79
2024/02/06 04:50:27;;;;;;;58.10;37.50;;;;;;;-128.00;-1.00;-1.00;105683;1253;1004154;-75
2024/02/06 04:52:55;;;;;;;53.10;32.30;;;;;;;-128.00;-1.00;-1.00;105681;1252;1003693;-74
2024/02/06 04:55:21;;;;;;;47.30;27.90;;;;;;;-128.00;-1.00;-1.00;105644;1252;1004297;-79
2024/02/06 04:57:47;;;;;;;50.10;31.00;;;;;;;-128.00;-1.00;-1.00;105653;1253;1003728;-78
2024/02/06 05:00:14;;;;;;;50.70;29.60;;;;;;;-128.00;-1.00;-1.00;105668;1253;1004142;-78
2024/02/06 05:02:41;;;;;;;54.60;32.00;;;;;;;-128.00;-1.00;-1.00;104660;1253;1003428;-74
2024/02/06 05:05:07;;;;;;;50.20;29.40;;;;;;;-128.00;-1.00;-1.00;103218;1252;1004658;-79
2024/02/06 05:07:34;;;;;;;50.00;24.40;;;;;;;-128.00;-1.00;-1.00;103105;1253;1004013;-74
2024/02/06 05:10:00;;;;;;;43.40;24.30;;;;;;;-128.00;-1.00;-1.00;103126;1253;1004236;-75
2024/02/06 05:12:27;;;;;;;39.40;21.40;;;;;;;-128.00;-1.00;-1.00;103248;1253;1004477;-74
2024/02/06 05:14:54;;;;;;;35.70;24.00;;;;;;;-128.00;-1.00;-1.00;103221;1257;1005028;-79
2024/02/06 05:17:20;;;;;;;32.40;17.20;;;;;;;-128.00;-1.00;-1.00;103264;1253;1003861;-74
2024/02/06 05:19:47;;;;;;;16.10;8.50;;;;;;;-128.00;-1.00;-1.00;103237;1256;1004472;-78
2024/02/06 05:22:14;;;;;;;23.50;17.10;;;;;;;-128.00;-1.00;-1.00;103161;1253;1004373;-74
2024/02/06 05:24:41;;;;;;;23.20;13.40;;;;;;;-128.00;-1.00;-1.00;103167;1253;1004121;-74
2024/02/06 05:27:07;;;;;;;16.30;6.80;;;;;;;-128.00;-1.00;-1.00;103153;1253;1005188;-74
2024/02/06 05:29:34;;;;;;;11.20;8.20;;;;;;;-128.00;-1.00;-1.00;103465;1253;1004625;-78
2024/02/06 05:32:00;;;;;;;9.30;4.00;;;;;;;-128.00;-1.00;-1.00;105682;1252;1003260;-74
2024/02/06 05:34:27;;;;;;;17.00;10.10;;;;;;;-128.00;-1.00;-1.00;105645;1253;1004062;-79
2024/02/06 05:36:53;;;;;;;15.50;9.50;;;;;;;-128.00;-1.00;-1.00;105684;1253;1004030;-75
2024/02/06 05:39:20;;;;;;;22.00;15.60;;;;;;;-128.00;-1.00;-1.00;105683;1253;1004175;-78
2024/02/06 05:41:47;;;;;;;15.90;6.40;;;;;;;-128.00;-1.00;-1.00;105609;1253;1004804;-75
2024/02/06 05:44:14;;;;;;;13.10;4.70;;;;;;;-128.00;-1.00;-1.00;105674;1252;1003693;-75
2024/02/06 05:46:41;;;;;;;11.10;3.40;;;;;;;-128.00;-1.00;-1.00;105542;1251;1003820;-75
2024/02/06 05:49:08;;;;;;;6.00;3.30;;;;;;;-128.00;-1.00;-1.00;105650;1253;1003702;-74
2024/02/06 05:51:35;;;;;;;19.10;5.90;;;;;;;-128.00;-1.00;-1.00;105673;1253;1004544;-79
2024/02/06 05:54:01;;;;;;;10.80;3.50;;;;;;;-128.00;-1.00;-1.00;105486;1252;1004356;-78
2024/02/06 05:56:27;;;;;;;24.50;13.90;;;;;;;-128.00;-1.00;-1.00;105686;1253;1003688;-79
2024/02/06 05:58:54;;;;;;;20.70;12.80;;;;;;;-128.00;-1.00;-1.00;105656;1253;1003670;-75
2024/02/06 06:01:21;;;;;;;16.10;8.10;;;;;;;-128.00;-1.00;-1.00;105645;1252;1004546;-79
2024/02/06 06:03:50;;;;;;;7.80;5.10;;;;;;;-128.00;-1.00;-1.00;105622;1252;1004615;-74
2024/02/06 06:06:16;;;;;;;13.70;7.50;;;;;;;-128.00;-1.00;-1.00;105635;1253;1061566;-75
2024/02/06 06:08:43;;;;;;;14.90;5.80;;;;;;;-128.00;-1.00;-1.00;103445;1253;1005294;-74
2024/02/06 06:11:09;;;;;;;18.30;5.40;;;;;;;-128.00;-1.00;-1.00;104607;1253;1004342;-79
2024/02/06 06:13:36;;;;;;;10.00;3.50;;;;;;;-128.00;-1.00;-1.00;105620;1252;1004003;-77
2024/02/06 06:16:02;;;;;;;14.30;4.50;;;;;;;-128.00;-1.00;-1.00;105706;1253;1003930;-79
2024/02/06 06:18:29;;;;;;;15.00;7.40;;;;;;;-128.00;-1.00;-1.00;103757;1253;1004627;-79
2024/02/06 06:20:55;;;;;;;45.90;23.60;;;;;;;-128.00;-1.00;-1.00;103189;1253;1005292;-74
2024/02/06 06:23:21;;;;;;;21.80;14.10;;;;;;;-128.00;-1.00;-1.00;103249;1254;1004945;-78
2024/02/06 06:25:48;;;;;;;21.10;15.30;;;;;;;-128.00;-1.00;-1.00;103176;1253;1004432;-74
2024/02/06 06:28:15;;;;;;;20.70;12.00;;;;;;;-128.00;-1.00;-1.00;103194;1253;1004208;-74
2024/02/06 06:30:41;;;;;;;22.30;11.80;;;;;;;-128.00;-1.00;-1.00;103191;1256;1003709;-78
2024/02/06 06:33:08;;;;;;;24.10;9.30;;;;;;;-128.00;-1.00;-1.00;103252;1253;1004018;-80
2024/02/06 06:35:34;;;;;;;21.80;9.40;;;;;;;-128.00;-1.00;-1.00;103237;1251;1004976;-74
2024/02/06 06:38:01;;;;;;;12.20;7.70;;;;;;;-128.00;-1.00;-1.00;103138;1253;1004528;-79
2024/02/06 06:40:27;;;;;;;10.50;6.50;;;;;;;-128.00;-1.00;-1.00;103395;1253;1003952;-74
2024/02/06 06:42:54;;;;;;;20.10;8.20;;;;;;;-128.00;-1.00;-1.00;103313;1252;1004480;-74
2024/02/06 06:45:21;;;;;;;10.60;4.80;;;;;;;-128.00;-1.00;-1.00;103288;1253;1005806;-74
2024/02/06 06:47:47;;;;;;;13.70;5.80;;;;;;;-128.00;-1.00;-1.00;103239;1253;1004565;-79
2024/02/06 06:50:14;;;;;;;16.30;6.90;;;;;;;-128.00;-1.00;-1.00;103163;1253;1005031;-75
2024/02/06 06:52:41;;;;;;;13.40;6.70;;;;;;;-128.00;-1.00;-1.00;103299;1253;1005611;-79
2024/02/06 06:55:08;;;;;;;17.80;8.40;;;;;;;-128.00;-1.00;-1.00;103269;1253;1004342;-78
2024/02/06 06:57:37;;;;;;;17.80;9.50;;;;;;;-128.00;-1.00;-1.00;103265;1253;1004710;-74
2024/02/06 07:00:05;;;;;;;19.10;7.70;;;;;;;-128.00;-1.00;-1.00;105592;1253;1058725;-79
2024/02/06 07:02:32;;;;;;;20.30;8.10;;;;;;;-128.00;-1.00;-1.00;105601;1253;1003132;-79
2024/02/06 07:05:01;;;;;;;15.50;6.90;;;;;;;-128.00;-1.00;-1.00;104826;1253;1004309;-75
2024/02/06 07:07:28;;;;;;;;;;;;;;;-128.00;-1.00;-1.00;103197;1253;1063368;-79
2024/02/06 07:09:54;;;;;;;15.60;6.60;;;;;;;-128.00;-1.00;-1.00;103327;1253;1004991;-75
2024/02/06 07:12:21;;;;;;;19.40;7.80;;;;;;;-128.00;-1.00;-1.00;103355;1253;1004531;-74
2024/02/06 07:14:47;;;;;;;23.90;7.60;;;;;;;-128.00;-1.00;-1.00;103286;1253;1004547;-75
2024/02/06 07:17:14;;;;;;;13.80;6.30;;;;;;;-128.00;-1.00;-1.00;103282;1252;1005182;-74
2024/02/06 07:19:40;;;;;;;11.00;5.30;;;;;;;-128.00;-1.00;-1.00;103302;1256;1004812;-79
2024/02/06 07:22:06;;;;;;;12.90;4.90;;;;;;;-128.00;-1.00;-1.00;103322;1253;1004722;-75
2024/02/06 07:24:33;;;;;;;12.00;4.30;;;;;;;-128.00;-1.00;-1.00;103226;1256;1004315;-75
2024/02/06 07:27:00;;;;;;;13.80;5.20;;;;;;;-128.00;-1.00;-1.00;103160;1253;1004658;-79
2024/02/06 07:29:27;;;;;;;15.80;3.60;;;;;;;-128.00;-1.00;-1.00;103180;1256;1004813;-75
2024/02/06 07:31:53;;;;;;;12.90;3.20;;;;;;;-128.00;-1.00;-1.00;103317;1253;1003733;-75
2024/02/06 07:34:20;;;;;;;10.60;3.80;;;;;;;-128.00;-1.00;-1.00;104550;1253;1005115;-80
2024/02/06 07:36:46;;;;;;;12.50;3.50;;;;;;;-128.00;-1.00;-1.00;105597;1253;1004396;-74
2024/02/06 07:39:13;;;;;;;7.50;3.60;;;;;;;-128.00;-1.00;-1.00;105679;1253;1003767;-75
2024/02/06 07:41:39;;;;;;;9.50;4.50;;;;;;;-128.00;-1.00;-1.00;105659;1253;1004602;-75
2024/02/06 07:44:06;;;;;;;9.80;3.90;;;;;;;-128.00;-1.00;-1.00;105582;1253;1003963;-75
2024/02/06 07:46:33;;;;;;;7.40;3.50;;;;;;;-128.00;-1.00;-1.00;105677;1253;1003821;-75
2024/02/06 07:48:59;;;;;;;6.30;2.60;;;;;;;-128.00;-1.00;-1.00;105669;1253;1004607;-79
2024/02/06 07:51:26;;;;;;;9.10;4.00;;;;;;;-128.00;-1.00;-1.00;105648;1253;1004423;-75
2024/02/06 07:53:56;;;;;;;10.20;4.00;;;;;;;-128.00;-1.00;-1.00;105652;1253;1003929;-76
2024/02/06 07:56:22;;;;;;;7.70;3.70;;;;;;;-128.00;-1.00;-1.00;105639;1256;1062570;-80
2024/02/06 07:58:49;;;;;;;13.10;3.50;;;;;;;-128.00;-1.00;-1.00;103588;1253;1004874;-79
2024/02/06 08:01:15;;;;;;;14.50;5.90;;;;;;;-128.00;-1.00;-1.00;103315;1253;1005309;-79
2024/02/06 08:03:42;;;;;;;9.20;3.90;;;;;;;-128.00;-1.00;-1.00;103056;1253;1005170;-75
2024/02/06 08:06:08;;;;;;;11.40;6.00;;;;;;;-128.00;-1.00;-1.00;103282;1255;1003873;-80
2024/02/06 08:08:35;;;;;;;9.10;4.20;;;;;;;-128.00;-1.00;-1.00;103262;1256;1003787;-75
2024/02/06 08:11:01;;;;;;;10.20;4.00;;;;;;;-128.00;-1.00;-1.00;103328;1253;1004524;-79
2024/02/06 08:13:28;;;;;;;8.20;4.30;;;;;;;-128.00;-1.00;-1.00;103390;1252;1004234;-75
2024/02/06 08:15:54;;;;;;;8.40;4.50;;;;;;;-128.00;-1.00;-1.00;103293;1252;1004353;-75
2024/02/06 08:18:21;;;;;;;14.50;3.90;;;;;;;-128.00;-1.00;-1.00;103274;1252;1004292;-79
2024/02/06 08:20:48;;;;;;;13.10;3.70;;;;;;;-128.00;-1.00;-1.00;103314;1255;1005152;-80
2024/02/06 08:23:14;;;;;;;12.40;4.00;;;;;;;-128.00;-1.00;-1.00;103352;1256;1004802;-75
2024/02/06 08:25:40;;;;;;;14.20;4.20;;;;;;;-128.00;-1.00;-1.00;103244;1253;1004413;-75
2024/02/06 08:28:07;;;;;;;11.20;3.00;;;;;;;-128.00;-1.00;-1.00;103160;1253;1004096;-79
2024/02/06 08:30:33;;;;;;;10.60;3.40;;;;;;;-128.00;-1.00;-1.00;103218;1253;1004285;-75
2024/02/06 08:33:00;;;;;;;11.10;4.30;;;;;;;-128.00;-1.00;-1.00;103401;1253;1005577;-79
2024/02/06 08:35:26;;;;;;;9.40;3.00;;;;;;;-128.00;-1.00;-1.00;103238;1253;1004635;-79
2024/02/06 08:37:52;;;;;;;10.60;3.90;;;;;;;-128.00;-1.00;-1.00;103324;1254;1004824;-75
2024/02/06 08:40:19;;;;;;;18.60;8.40;;;;;;;-128.00;-1.00;-1.00;103223;1253;1004838;-75
2024/02/06 08:42:45;;;;;;;12.60;6.20;;;;;;;-128.00;-1.00;-1.00;103490;1253;1004899;-79
2024/02/06 08:45:12;;;;;;;44.50;32.50;;;;;;;-128.00;-1.00;-1.00;103276;1253;1058245;-79
2024/02/06 08:47:38;;;;;;;27.30;20.30;;;;;;;-128.00;-1.00;-1.00;103257;1253;1004131;-79
2024/02/06 08:50:06;;;;;;;18.20;7.50;;;;;;;-128.00;-1.00;-1.00;103155;1253;1004275;-79
2024/02/06 08:52:33;;;;;;;13.30;4.50;;;;;;;-128.00;-1.00;-1.00;105687;1252;1004042;-75
2024/02/06 08:54:59;;;;;;;8.00;3.70;;;;;;;-128.00;-1.00;-1.00;105642;1251;1005054;-75
2024/02/06 08:57:26;;;;;;;6.50;2.80;;;;;;;-128.00;-1.00;-1.00;105682;1254;1003544;-75
2024/02/06 08:59:52;;;;;;;7.20;2.90;;;;;;;-128.00;-1.00;-1.00;105597;1253;1004446;-80
2024/02/06 09:02:19;;;;;;;8.90;3.00;;;;;;;-128.00;-1.00;-1.00;105537;1253;1004484;-75
2024/02/06 09:04:46;;;;;;;10.20;2.90;;;;;;;-128.00;-1.00;-1.00;105638;1253;1003575;-75
2024/02/06 09:07:12;;;;;;;9.20;3.40;;;;;;;-128.00;-1.00;-1.00;105665;1251;1003709;-79
2024/02/06 09:09:39;;;;;;;12.50;3.20;;;;;;;-128.00;-1.00;-1.00;105650;1253;1004939;-75
2024/02/06 09:12:06;;;;;;;10.90;2.90;;;;;;;-128.00;-1.00;-1.00;105636;1253;1003862;-75
2024/02/06 09:14:33;;;;;;;9.00;3.60;;;;;;;-128.00;-1.00;-1.00;105596;1253;1004320;-79
2024/02/06 09:16:59;;;;;;;8.40;3.50;;;;;;;-128.00;-1.00;-1.00;105647;1253;1003835;-79
2024/02/06 09:19:26;;;;;;;9.50;3.70;;;;;;;-128.00;-1.00;-1.00;105681;1253;1004684;-75
2024/02/06 09:21:52;;;;;;;8.90;3.70;;;;;;;-128.00;-1.00;-1.00;105642;1253;1004773;-75
2024/02/06 09:24:18;;;;;;;15.90;4.70;;;;;;;-128.00;-1.00;-1.00;105639;1253;1003640;-79
2024/02/06 09:26:45;;;;;;;10.70;3.10;;;;;;;-128.00;-1.00;-1.00;105681;1253;1003703;-75
2024/02/06 09:29:13;;;;;;;13.10;3.70;;;;;;;-128.00;-1.00;-1.00;105623;1253;1003806;-79
2024/02/06 09:31:41;;;;;;;10.50;4.30;;;;;;;-128.00;-1.00;-1.00;105663;1252;1004341;-79
2024/02/06 09:34:07;;;;;;;8.40;3.30;;;;;;;-128.00;-1.00;-1.00;104266;1253;1004969;-79
2024/02/06 09:36:34;;;;;;;8.90;3.90;;;;;;;-128.00;-1.00;-1.00;103323;1253;1004477;-79
2024/02/06 09:39:00;;;;;;;11.30;4.30;;;;;;;-128.00;-1.00;-1.00;103190;1252;1004837;-79
2024/02/06 09:41:26;;;;;;;9.80;3.40;;;;;;;-128.00;-1.00;-1.00;103491;1253;1004731;-74
2024/02/06 09:43:53;;;;;;;8.50;3.20;;;;;;;-128.00;-1.00;-1.00;103370;1253;1003976;-79
2024/02/06 09:46:19;;;;;;;12.60;4.40;;;;;;;-128.00;-1.00;-1.00;103414;1255;1004401;-75
2024/02/06 09:48:46;;;;;;;10.80;4.20;;;;;;;-128.00;-1.00;-1.00;103348;1253;1005028;-75
2024/02/06 09:51:12;;;;;;;11.00;4.60;;;;;;;-128.00;-1.00;-1.00;103297;1253;1005359;-79
2024/02/06 09:53:39;;;;;;;12.80;4.50;;;;;;;-128.00;-1.00;-1.00;103573;1253;1004763;-75
2024/02/06 09:56:05;;;;;;;13.60;7.20;;;;;;;-128.00;-1.00;-1.00;103374;1253;1005287;-80
2024/02/06 09:58:32;;;;;;;11.50;4.10;;;;;;;-128.00;-1.00;-1.00;103658;1253;1004450;-79
2024/02/06 10:00:58;;;;;;;10.00;4.20;;;;;;;-128.00;-1.00;-1.00;103226;1255;1005324;-75
2024/02/06 10:03:32;;;;;;;12.80;4.80;;;;;;;-128.00;-1.00;-1.00;103353;1256;1003876;-75
2024/02/06 10:06:00;;;;;;;11.80;3.90;;;;;;;-128.00;-1.00;-1.00;103289;1253;1047789;-75
2024/02/06 10:08:26;;;;;;;16.60;5.60;;;;;;;-128.00;-1.00;-1.00;103266;1253;1004084;-79
2024/02/06 10:10:54;;;;;;;7.90;3.90;;;;;;;-128.00;-1.00;-1.00;103323;1253;1004919;-79
2024/02/06 10:13:21;;;;;;;11.10;3.90;;;;;;;-128.00;-1.00;-1.00;103358;1253;1004326;-74
2024/02/06 10:15:47;;;;;;;35.90;15.40;;;;;;;-128.00;-1.00;-1.00;103365;1257;1005380;-79
2024/02/06 10:18:14;;;;;;;19.50;10.60;;;;;;;-128.00;-1.00;-1.00;103257;1253;1005117;-75
2024/02/06 10:20:44;;;;;;;14.20;6.90;;;;;;;-128.00;-1.00;-1.00;103442;1253;1004598;-75
2024/02/06 10:23:13;;;;;;;15.40;7.60;;;;;;;-128.00;-1.00;-1.00;105666;1253;1058461;-75
2024/02/06 10:25:39;;;;;;;37.00;16.60;;;;;;;-128.00;-1.00;-1.00;105597;1253;1059497;-75
2024/02/06 10:28:06;;;;;;;14.00;10.30;;;;;;;-128.00;-1.00;-1.00;105547;1253;1004952;-75
2024/02/06 10:30:34;;;;;;;23.10;11.00;;;;;;;-128.00;-1.00;-1.00;105611;1253;1003715;-79
2024/02/06 10:33:13;;;;;;;15.80;8.90;;;;;;;-128.00;-1.00;-1.00;105625;1256;1004338;-75
2024/02/06 10:35:40;;;;;;;22.10;10.30;;;;;;;-128.00;-1.00;-1.00;104427;1256;1058236;-75
2024/02/06 10:38:13;;;;;;;28.40;11.00;;;;;;;-128.00;-1.00;-1.00;103299;1257;1004614;-79
2024/02/06 10:40:43;;;;;;;86.70;42.20;;;;;;;-128.00;-1.00;-1.00;103694;1259;1045410;-75
2024/02/06 10:43:10;;;;;;;36.70;15.90;;;;;;;-128.00;-1.00;-1.00;103675;1257;1047905;-79
2024/02/06 10:45:37;;;;;;;66.40;28.30;;;;;;;-128.00;-1.00;-1.00;103766;1253;1004393;-75
2024/02/06 10:48:04;;;;;;;54.20;26.30;;;;;;;-128.00;-1.00;-1.00;103562;1255;1004177;-79
2024/02/06 10:50:31;;;;;;;97.90;44.80;;;;;;;-128.00;-1.00;-1.00;103472;1255;1003717;-75
2024/02/06 10:52:58;;;;;;;89.10;41.60;;;;;;;-128.00;-1.00;-1.00;103398;1256;1005000;-79
2024/02/06 10:55:25;;;;;;;59.30;26.40;;;;;;;-128.00;-1.00;-1.00;103423;1254;1004741;-79
2024/02/06 10:58:00;;;;;;;54.30;27.10;;;;;;;-128.00;-1.00;-1.00;103328;1253;1004399;-75
2024/02/06 11:00:27;;;;;;;35.60;16.10;;;;;;;-128.00;-1.00;-1.00;103296;1255;1057823;-79
2024/02/06 11:02:56;;;;;;;46.50;18.20;;;;;;;-128.00;-1.00;-1.00;103378;1254;1004675;-78
2024/02/06 11:05:57;;;;;;;29.00;14.10;;;;;;;-128.00;-1.00;-1.00;103373;1257;1046296;-79
2024/02/06 11:08:27;;;;;;;22.60;10.50;;;;;;;-128.00;-1.00;-1.00;105332;1255;1047436;-79